createdAt,value
2022-12-19T00:00:52.521Z,2.28
2022-12-19T00:03:20.826Z,2.11
2022-12-19T00:05:49.430Z,2.20
2022-12-19T00:08:18.285Z,2.24
2022-12-19T00:10:55.271Z,2.23
2022-12-19T00:13:23.604Z,2.28
2022-12-19T00:15:53.318Z,2.27
2022-12-19T00:18:22.199Z,2.28
2022-12-19T00:21:01.452Z,2.17
2022-12-19T00:23:31.179Z,2.17
2022-12-19T00:26:09.111Z,2.15
2022-12-19T00:28:37.776Z,2.26
2022-12-19T00:31:07.808Z,2.23
2022-12-19T00:33:36.361Z,2.26
2022-12-19T00:36:10.128Z,2.22
2022-12-19T00:38:38.725Z,2.30
2022-12-19T00:41:11.818Z,2.36
2022-12-19T00:43:40.991Z,2.31
2022-12-19T00:46:14.086Z,2.30
2022-12-19T00:48:42.768Z,2.33
2022-12-19T00:51:14.000Z,2.28
2022-12-19T00:53:42.683Z,2.31
2022-12-19T00:56:14.364Z,2.23
2022-12-19T00:58:46.821Z,2.30
2022-12-19T01:01:18.867Z,2.26
2022-12-19T01:04:18.671Z,2.31
2022-12-19T01:06:36.310Z,2.15
2022-12-19T01:09:05.074Z,2.27
2022-12-19T01:11:51.017Z,2.22
2022-12-19T01:14:22.961Z,2.26
2022-12-19T01:16:53.715Z,2.19
2022-12-19T01:19:22.142Z,2.26
2022-12-19T01:21:50.426Z,2.15
2022-12-19T01:24:19.351Z,2.24
2022-12-19T01:26:47.746Z,2.25
2022-12-19T01:29:15.989Z,2.32
2022-12-19T01:31:44.471Z,2.20
2022-12-19T01:34:14.523Z,2.19
2022-12-19T01:36:42.665Z,2.21
2022-12-19T01:39:10.892Z,2.08
2022-12-19T01:41:39.185Z,2.15
2022-12-19T01:44:09.726Z,2.12
2022-12-19T01:46:42.757Z,1.98
2022-12-19T01:49:24.763Z,2.03
2022-12-19T01:51:57.056Z,2.07
2022-12-19T01:54:36.649Z,2.08
2022-12-19T01:57:09.521Z,2.18
2022-12-19T01:59:40.516Z,2.16
2022-12-19T02:02:13.147Z,2.17
2022-12-19T02:04:43.340Z,2.14
2022-12-19T02:07:16.338Z,2.03
2022-12-19T02:09:46.690Z,2.06
2022-12-19T02:12:15.128Z,2.05
2022-12-19T02:14:43.930Z,1.90
2022-12-19T02:17:20.348Z,1.93
2022-12-19T02:20:19.092Z,1.94
2022-12-19T02:23:05.541Z,2.02
2022-12-19T02:26:00.854Z,1.95
2022-12-19T02:28:55.065Z,2.11
2022-12-19T02:31:31.176Z,2.21
2022-12-19T02:34:10.904Z,2.20
2022-12-19T02:36:45.233Z,2.16
2022-12-19T02:39:19.744Z,2.20
2022-12-19T02:41:52.440Z,2.23
2022-12-19T02:44:25.849Z,2.26
2022-12-19T02:46:56.334Z,2.23
2022-12-19T02:49:31.164Z,2.30
2022-12-19T02:51:59.882Z,2.29
2022-12-19T02:54:28.255Z,2.30
2022-12-19T02:57:01.948Z,2.37
2022-12-19T02:59:52.952Z,2.25
2022-12-19T03:02:33.277Z,2.28
2022-12-19T03:05:10.512Z,2.29
2022-12-19T03:07:43.914Z,2.22
2022-12-19T03:10:19.916Z,2.28
2022-12-19T03:12:52.459Z,2.37
2022-12-19T03:15:21.793Z,2.30
2022-12-19T03:17:52.219Z,2.25
2022-12-19T03:20:27.454Z,2.18
2022-12-19T03:22:55.696Z,2.17
2022-12-19T03:25:25.535Z,2.23
2022-12-19T03:27:55.951Z,2.22
2022-12-19T03:30:24.397Z,2.21
2022-12-19T03:32:54.870Z,2.21
2022-12-19T03:35:25.965Z,2.17
2022-12-19T03:37:56.727Z,2.20
2022-12-19T03:40:27.622Z,2.24
2022-12-19T03:43:12.706Z,2.32
2022-12-19T03:45:50.647Z,2.28
2022-12-19T03:48:26.597Z,2.12
2022-12-19T03:51:04.777Z,2.05
2022-12-19T03:53:47.417Z,2.12
2022-12-19T03:56:24.131Z,2.12
2022-12-19T03:58:59.103Z,2.17
2022-12-19T04:01:29.826Z,2.17
2022-12-19T04:04:00.598Z,2.05
2022-12-19T04:06:31.493Z,2.03
2022-12-19T04:09:01.108Z,2.10
2022-12-19T04:11:35.806Z,2.14
2022-12-19T04:14:07.765Z,2.12
2022-12-19T04:16:45.399Z,2.04
2022-12-19T04:19:19.537Z,2.03
2022-12-19T04:21:54.272Z,1.88
2022-12-19T04:24:28.914Z,1.89
2022-12-19T04:27:00.519Z,1.97
2022-12-19T04:29:32.687Z,1.94
2022-12-19T04:32:03.402Z,1.88
2022-12-19T04:34:33.589Z,1.86
2022-12-19T04:37:01.707Z,1.81
2022-12-19T04:39:30.314Z,1.91
2022-12-19T04:41:58.644Z,1.93
2022-12-19T04:44:26.817Z,1.85
2022-12-19T04:46:55.162Z,1.79
2022-12-19T04:49:23.630Z,1.82
2022-12-19T04:51:54.001Z,1.79
2022-12-19T04:54:22.845Z,1.81
2022-12-19T04:56:51.466Z,1.77
2022-12-19T04:59:19.590Z,1.62
2022-12-19T05:01:47.941Z,1.70
2022-12-19T05:04:16.446Z,1.62
2022-12-19T05:06:44.565Z,1.61
2022-12-19T05:09:14.405Z,1.67
2022-12-19T05:11:42.701Z,1.60
2022-12-19T05:14:11.414Z,1.63
2022-12-19T05:16:39.663Z,1.67
2022-12-19T05:19:08.422Z,1.70
2022-12-19T05:21:36.887Z,1.69
2022-12-19T05:24:05.718Z,1.74
2022-12-19T05:26:35.365Z,1.74
2022-12-19T05:29:03.714Z,1.66
2022-12-19T05:31:32.022Z,1.73
2022-12-19T05:34:00.342Z,1.79
2022-12-19T05:36:32.435Z,1.76
2022-12-19T05:39:01.244Z,1.59
2022-12-19T05:41:29.485Z,1.60
2022-12-19T05:43:59.072Z,1.55
2022-12-19T05:46:27.886Z,1.61
2022-12-19T05:48:56.436Z,1.64
2022-12-19T05:51:25.436Z,1.65
2022-12-19T05:53:53.785Z,1.63
2022-12-19T05:56:23.580Z,1.59
2022-12-19T05:58:52.197Z,1.62
2022-12-19T06:01:24.080Z,1.62
2022-12-19T06:03:53.017Z,1.62
2022-12-19T06:06:23.053Z,1.63
2022-12-19T06:08:55.360Z,1.58
2022-12-19T06:11:23.931Z,1.57
2022-12-19T06:13:52.605Z,1.57
2022-12-19T06:16:24.173Z,1.53
2022-12-19T06:18:52.431Z,1.60
2022-12-19T06:21:23.067Z,1.61
2022-12-19T06:23:51.946Z,1.58
2022-12-19T06:26:22.725Z,1.53
2022-12-19T06:28:52.023Z,1.43
2022-12-19T06:31:24.116Z,1.40
2022-12-19T06:33:53.279Z,1.37
2022-12-19T06:36:23.417Z,1.43
2022-12-19T06:38:52.562Z,1.40
2022-12-19T06:41:38.493Z,1.39
2022-12-19T06:44:08.580Z,1.52
2022-12-19T06:46:39.144Z,1.64
2022-12-19T06:49:08.223Z,1.57
2022-12-19T06:51:36.867Z,1.56
2022-12-19T06:54:05.498Z,1.51
2022-12-19T06:56:36.742Z,1.56
2022-12-19T06:59:05.397Z,1.62
2022-12-19T07:01:50.198Z,1.47
2022-12-19T07:04:23.958Z,1.43
2022-12-19T07:06:52.930Z,1.47
2022-12-19T07:09:21.650Z,1.50
2022-12-19T07:11:50.498Z,1.28
2022-12-19T07:14:19.275Z,1.45
2022-12-19T07:16:51.069Z,1.49
2022-12-19T07:19:20.747Z,1.59
2022-12-19T07:21:49.353Z,1.63
2022-12-19T07:24:17.863Z,1.69
2022-12-19T07:26:46.511Z,1.74
2022-12-19T07:29:15.415Z,1.67
2022-12-19T07:31:43.710Z,1.66
2022-12-19T07:34:13.528Z,1.63
2022-12-19T07:36:41.860Z,1.72
2022-12-19T07:39:10.120Z,1.71
2022-12-19T07:41:38.584Z,1.70
2022-12-19T07:44:07.286Z,1.77
2022-12-19T07:46:35.549Z,1.74
2022-12-19T07:49:03.885Z,1.72
2022-12-19T07:51:33.871Z,1.71
2022-12-19T07:54:02.138Z,1.66
2022-12-19T07:56:30.396Z,1.62
2022-12-19T07:58:59.344Z,1.62
2022-12-19T08:01:28.482Z,1.56
2022-12-19T08:03:58.723Z,1.44
2022-12-19T08:06:28.019Z,1.50
2022-12-19T08:08:58.358Z,1.59
2022-12-19T08:11:32.610Z,1.66
2022-12-19T08:14:01.638Z,1.66
2022-12-19T08:16:29.857Z,1.66
2022-12-19T08:18:58.218Z,1.68
2022-12-19T08:21:27.108Z,1.67
2022-12-19T08:23:55.505Z,1.63
2022-12-19T08:26:26.801Z,1.67
2022-12-19T08:28:56.872Z,1.68
2022-12-19T08:31:27.201Z,1.69
2022-12-19T08:33:58.181Z,1.81
2022-12-19T08:36:27.098Z,1.85
2022-12-19T08:38:56.328Z,1.80
2022-12-19T08:41:26.511Z,1.79
2022-12-19T08:43:55.492Z,1.83
2022-12-19T08:46:24.353Z,1.85
2022-12-19T08:48:52.986Z,1.78
2022-12-19T08:51:21.729Z,1.72
2022-12-19T08:53:50.120Z,1.86
2022-12-19T08:56:20.520Z,1.83
2022-12-19T08:58:52.525Z,1.82
2022-12-19T09:01:24.275Z,1.88
2022-12-19T09:06:02.335Z,1.88
2022-12-19T09:06:41.388Z,1.91
2022-12-19T09:09:09.697Z,1.90
2022-12-19T09:11:45.414Z,1.98
2022-12-19T09:14:21.233Z,2.06
2022-12-19T09:16:50.376Z,2.01
2022-12-19T09:19:18.980Z,1.98
2022-12-19T09:21:47.353Z,2.04
2022-12-19T09:24:15.799Z,2.03
2022-12-19T09:26:44.972Z,2.07
2022-12-19T09:29:20.424Z,2.08
2022-12-19T09:31:56.936Z,2.00
2022-12-19T09:34:31.888Z,2.11
2022-12-19T09:37:07.715Z,2.13
2022-12-19T09:39:36.745Z,2.19
2022-12-19T09:42:32.430Z,2.01
2022-12-19T09:45:27.786Z,1.98
2022-12-19T09:48:05.858Z,2.07
2022-12-19T09:50:46.730Z,2.08
2022-12-19T09:53:22.819Z,2.10
2022-12-19T09:55:53.476Z,2.15
2022-12-19T09:58:32.267Z,2.23
2022-12-19T10:01:03.976Z,2.23
2022-12-19T10:03:40.415Z,2.17
2022-12-19T10:07:07.019Z,2.17
2022-12-19T10:10:52.887Z,2.09
2022-12-19T10:12:38.175Z,2.08
2022-12-19T10:15:09.731Z,2.12
2022-12-19T10:17:58.565Z,2.12
2022-12-19T10:20:32.070Z,2.27
2022-12-19T10:23:15.519Z,2.20
2022-12-19T10:25:59.937Z,2.13
2022-12-19T10:28:50.942Z,2.21
2022-12-19T10:31:24.626Z,2.17
2022-12-19T10:34:00.282Z,2.26
2022-12-19T10:37:11.902Z,2.25
2022-12-19T10:39:31.579Z,2.25
2022-12-19T10:42:11.147Z,2.26
2022-12-19T10:44:43.933Z,2.37
2022-12-19T10:47:17.762Z,2.27
2022-12-19T10:49:45.935Z,2.40
2022-12-19T10:52:16.263Z,2.36
2022-12-19T10:54:44.955Z,2.36
2022-12-19T10:57:21.419Z,2.28
2022-12-19T10:59:56.494Z,2.34
2022-12-19T11:02:35.682Z,2.33
2022-12-19T11:05:07.904Z,2.34
2022-12-19T11:07:37.770Z,2.30
2022-12-19T11:11:04.288Z,2.23
2022-12-19T11:19:23.218Z,2.33
2022-12-19T11:21:31.152Z,2.30
2022-12-19T11:29:18.921Z,2.40
2022-12-19T11:29:44.965Z,2.32
2022-12-19T11:30:36.958Z,2.25
2022-12-19T11:30:41.127Z,2.36
2022-12-19T11:34:04.739Z,2.41
2022-12-19T11:36:39.878Z,2.41
2022-12-19T11:39:14.644Z,2.37
2022-12-19T11:41:50.243Z,2.38
2022-12-19T11:44:27.925Z,2.34
2022-12-19T11:47:04.948Z,2.27
2022-12-19T11:49:40.226Z,2.37
2022-12-19T11:53:01.822Z,2.42
2022-12-19T11:55:16.218Z,2.34
2022-12-19T11:57:46.809Z,2.35
2022-12-19T12:00:18.171Z,2.41
2022-12-19T12:03:15.371Z,2.29
2022-12-19T12:05:45.283Z,2.29
2022-12-19T12:10:17.850Z,2.30
2022-12-19T12:18:39.213Z,2.35
2022-12-19T12:21:31.250Z,2.35
2022-12-19T12:31:10.767Z,2.32
2022-12-19T12:31:11.127Z,2.43
2022-12-19T12:31:28.142Z,2.30
2022-12-19T12:31:28.655Z,2.47
2022-12-19T12:31:57.033Z,2.36
2022-12-19T12:35:33.020Z,2.35
2022-12-19T12:38:38.691Z,2.33
2022-12-19T12:41:20.782Z,2.39
2022-12-19T12:44:07.729Z,2.42
2022-12-19T12:46:44.224Z,2.38
2022-12-19T12:49:30.271Z,2.51
2022-12-19T12:52:01.629Z,2.49
2022-12-19T12:54:35.621Z,2.47
2022-12-19T12:57:04.498Z,2.57
2022-12-19T12:59:33.615Z,2.60
2022-12-19T13:02:16.230Z,2.65
2022-12-19T13:04:57.152Z,2.66
2022-12-19T13:07:35.661Z,2.65
2022-12-19T13:10:24.096Z,2.58
2022-12-19T13:13:02.356Z,2.49
2022-12-19T13:15:42.275Z,2.53
2022-12-19T13:18:31.986Z,2.58
2022-12-19T13:21:01.581Z,2.63
2022-12-19T13:23:48.049Z,2.55
2022-12-19T13:26:51.154Z,2.50
2022-12-19T13:29:56.312Z,2.55
2022-12-19T13:32:25.544Z,2.58
2022-12-19T13:35:22.755Z,2.48
2022-12-19T13:39:51.443Z,2.52
2022-12-19T13:40:57.389Z,2.56
2022-12-19T13:43:48.056Z,2.60
2022-12-19T13:46:38.037Z,2.48
2022-12-19T13:49:12.113Z,2.52
2022-12-19T13:51:48.609Z,2.46
2022-12-19T13:54:25.513Z,2.54
2022-12-19T13:56:55.621Z,2.63
2022-12-19T13:59:26.831Z,2.57
2022-12-19T14:01:56.789Z,2.60
2022-12-19T14:04:30.650Z,2.67
2022-12-19T14:07:05.809Z,2.65
2022-12-19T14:11:28.855Z,2.69
2022-12-19T14:13:46.131Z,2.61
2022-12-19T14:15:38.653Z,2.59
2022-12-19T14:18:43.615Z,2.71
2022-12-19T14:22:08.919Z,2.56
2022-12-19T14:24:20.686Z,2.60
2022-12-19T14:28:25.964Z,2.63
2022-12-19T14:30:28.682Z,2.69
2022-12-19T14:33:39.676Z,2.63
2022-12-19T14:36:11.419Z,2.67
2022-12-19T14:39:24.040Z,2.59
2022-12-19T14:41:45.216Z,2.64
2022-12-19T14:52:08.178Z,2.64
2022-12-19T14:54:08.627Z,2.61
2022-12-19T14:54:18.685Z,2.58
2022-12-19T14:54:27.382Z,2.63
2022-12-19T14:58:59.032Z,2.59
2022-12-19T15:01:30.095Z,2.66
2022-12-19T15:04:48.432Z,2.67
2022-12-19T15:07:07.603Z,2.72
2022-12-19T15:11:06.500Z,2.74
2022-12-19T15:14:51.618Z,2.79
2022-12-19T15:16:00.295Z,2.79
2022-12-19T15:18:38.590Z,2.77
2022-12-19T15:21:10.002Z,2.79
2022-12-19T15:23:40.935Z,2.88
2022-12-19T15:26:14.705Z,2.84
2022-12-19T15:28:48.299Z,2.87
2022-12-19T15:31:28.913Z,2.77
2022-12-19T15:34:32.908Z,2.80
2022-12-19T15:36:46.689Z,2.67
2022-12-19T15:39:16.430Z,2.88
2022-12-19T15:41:48.578Z,2.88
2022-12-19T15:44:21.608Z,2.75
2022-12-19T15:46:52.340Z,2.78
2022-12-19T15:49:23.467Z,2.87
2022-12-19T15:51:55.363Z,2.70
2022-12-19T15:57:25.050Z,2.88
2022-12-19T15:59:54.604Z,2.89
2022-12-19T16:02:27.896Z,2.87
2022-12-19T16:05:06.717Z,2.88
2022-12-19T16:07:35.297Z,2.92
2022-12-19T16:10:03.710Z,2.97
2022-12-19T16:12:38.879Z,2.97
2022-12-19T16:15:15.597Z,2.90
2022-12-19T16:17:45.516Z,2.94
2022-12-19T16:20:19.249Z,2.93
2022-12-19T16:22:47.894Z,2.97
2022-12-19T16:25:17.091Z,2.89
2022-12-19T16:27:52.929Z,2.80
2022-12-19T16:30:25.597Z,2.86
2022-12-19T16:32:56.080Z,2.97
2022-12-19T16:36:01.778Z,3.01
2022-12-19T16:38:16.051Z,3.02
2022-12-19T16:40:48.963Z,2.98
2022-12-19T16:43:26.266Z,2.91
2022-12-19T16:46:00.776Z,3.02
2022-12-19T16:48:32.343Z,2.97
2022-12-19T16:51:01.504Z,3.04
2022-12-19T16:53:33.800Z,3.08
2022-12-19T16:56:02.812Z,3.00
2022-12-19T16:58:31.335Z,2.99
2022-12-19T17:00:59.944Z,3.06
2022-12-19T17:03:40.083Z,3.03
2022-12-19T17:06:13.923Z,3.02
2022-12-19T17:08:48.739Z,3.01
2022-12-19T17:11:19.497Z,3.01
2022-12-19T17:13:52.345Z,3.07
2022-12-19T17:16:21.090Z,3.09
2022-12-19T17:18:51.631Z,3.09
2022-12-19T17:21:24.208Z,3.09
2022-12-19T17:23:53.516Z,3.09
2022-12-19T17:26:21.918Z,3.12
2022-12-19T17:28:51.138Z,3.14
2022-12-19T17:31:24.960Z,3.04
2022-12-19T17:34:01.141Z,3.04
2022-12-19T17:36:37.052Z,3.06
2022-12-19T17:39:20.268Z,3.01
2022-12-19T17:41:48.733Z,3.05
2022-12-19T17:44:16.976Z,3.07
2022-12-19T17:46:46.115Z,3.08
2022-12-19T17:49:18.480Z,3.15
2022-12-19T17:51:52.364Z,3.25
2022-12-19T17:54:21.276Z,3.13
2022-12-19T17:56:49.764Z,3.13
2022-12-19T17:59:18.117Z,3.18
2022-12-19T18:01:47.653Z,3.14
2022-12-19T18:04:21.300Z,3.23
2022-12-19T18:06:49.794Z,3.17
2022-12-19T18:09:20.552Z,3.16
2022-12-19T18:11:49.538Z,3.15
2022-12-19T18:14:18.335Z,3.13
2022-12-19T18:16:47.560Z,3.10
2022-12-19T18:19:19.633Z,3.06
2022-12-19T18:21:48.927Z,3.19
2022-12-19T18:24:17.932Z,3.22
2022-12-19T18:26:47.100Z,3.21
2022-12-19T18:29:16.619Z,3.21
2022-12-19T18:31:50.458Z,3.23
2022-12-19T18:34:24.115Z,3.17
2022-12-19T18:36:53.446Z,3.21
2022-12-19T18:39:24.330Z,3.21
2022-12-19T18:41:55.754Z,3.25
2022-12-19T18:44:24.213Z,3.27
2022-12-19T18:46:53.516Z,3.25
2022-12-19T18:49:23.744Z,3.29
2022-12-19T18:51:52.140Z,3.33
2022-12-19T18:54:22.983Z,3.34
2022-12-19T18:56:52.089Z,3.34
2022-12-19T18:59:20.484Z,3.34
2022-12-19T19:01:49.158Z,3.31
2022-12-19T19:04:18.511Z,3.32
2022-12-19T19:06:52.014Z,3.35
2022-12-19T19:09:22.668Z,3.34
2022-12-19T19:11:51.830Z,3.37
2022-12-19T19:14:20.689Z,3.35
2022-12-19T19:16:49.278Z,3.35
2022-12-19T19:19:24.340Z,3.31
2022-12-19T19:21:55.495Z,3.33
2022-12-19T19:24:25.888Z,3.37
2022-12-19T19:26:56.556Z,3.36
2022-12-19T19:29:25.207Z,3.38
2022-12-19T19:32:04.740Z,3.37
2022-12-19T19:34:40.537Z,3.32
2022-12-19T19:37:12.292Z,3.39
2022-12-19T19:39:41.156Z,3.52
2022-12-19T19:42:10.737Z,3.46
2022-12-19T19:44:48.856Z,3.43
2022-12-19T19:47:17.607Z,3.50
2022-12-19T19:49:46.016Z,3.52
2022-12-19T19:52:16.041Z,3.55
2022-12-19T19:54:47.749Z,3.46
2022-12-19T19:57:19.976Z,3.57
2022-12-19T19:59:55.769Z,3.50
2022-12-19T20:02:24.580Z,3.64
2022-12-19T20:04:53.063Z,3.61
2022-12-19T20:07:24.192Z,3.58
2022-12-19T20:09:52.700Z,3.55
2022-12-19T20:12:21.322Z,3.66
2022-12-19T20:14:50.601Z,3.67
2022-12-19T20:17:19.282Z,3.69
2022-12-19T20:19:47.669Z,3.74
2022-12-19T20:22:17.226Z,3.70
2022-12-19T20:24:47.159Z,3.71
2022-12-19T20:27:15.386Z,3.74
2022-12-19T20:29:43.819Z,3.78
2022-12-19T20:32:15.019Z,3.74
2022-12-19T20:34:43.388Z,3.77
2022-12-19T20:37:11.758Z,3.82
2022-12-19T20:39:40.374Z,3.88
2022-12-19T20:42:10.215Z,3.88
2022-12-19T20:44:42.962Z,3.91
2022-12-19T20:47:12.429Z,3.96
2022-12-19T20:49:42.719Z,3.92
2022-12-19T20:52:23.554Z,3.89
2022-12-19T20:54:54.719Z,3.97
2022-12-19T20:57:33.684Z,3.92
2022-12-19T21:00:01.895Z,4.02
2022-12-19T21:02:46.248Z,4.02
2022-12-19T21:05:19.881Z,4.05
2022-12-19T21:07:48.364Z,4.07
2022-12-19T21:10:17.686Z,4.12
2022-12-19T21:12:48.209Z,4.15
2022-12-19T21:15:18.739Z,4.09
2022-12-19T21:17:47.125Z,4.19
2022-12-19T21:20:15.871Z,4.25
2022-12-19T21:22:44.224Z,4.25
2022-12-19T21:25:12.522Z,4.23
2022-12-19T21:27:41.876Z,4.25
2022-12-19T21:30:13.134Z,4.25
2022-12-19T21:32:41.487Z,4.26
2022-12-19T21:35:11.174Z,4.26
2022-12-19T21:37:58.439Z,4.31
2022-12-19T21:40:54.931Z,4.35
2022-12-19T21:43:23.237Z,4.41
2022-12-19T21:45:52.936Z,4.43
2022-12-19T21:48:21.166Z,4.47
2022-12-19T21:50:56.898Z,4.46
2022-12-19T21:53:25.317Z,4.52
2022-12-19T21:55:53.662Z,4.55
2022-12-19T21:58:21.872Z,4.58
2022-12-19T22:00:50.357Z,4.57
2022-12-19T22:03:20.287Z,4.59
2022-12-19T22:05:48.780Z,4.64
2022-12-19T22:08:17.167Z,4.60
2022-12-19T22:10:45.454Z,4.69
2022-12-19T22:13:13.648Z,4.70
2022-12-19T22:15:42.079Z,4.73
2022-12-19T22:18:11.380Z,4.76
2022-12-19T22:20:44.384Z,4.78
2022-12-19T22:23:13.835Z,4.82
2022-12-19T22:25:42.471Z,4.87
2022-12-19T22:28:10.933Z,4.88
2022-12-19T22:30:39.235Z,4.89
2022-12-19T22:33:08.353Z,4.91
2022-12-19T22:35:37.077Z,4.95
2022-12-19T22:38:07.020Z,4.94
2022-12-19T22:40:35.879Z,4.96
2022-12-19T22:43:04.152Z,5.01
2022-12-19T22:45:32.525Z,5.01
2022-12-19T22:48:00.771Z,5.02
2022-12-19T22:50:29.202Z,5.05
2022-12-19T22:52:57.584Z,5.08
2022-12-19T22:55:27.281Z,5.06
2022-12-19T22:57:55.641Z,5.09
2022-12-19T23:00:24.081Z,5.16
2022-12-19T23:02:52.357Z,5.21
2022-12-19T23:05:20.983Z,5.23
2022-12-19T23:07:49.397Z,5.29
2022-12-19T23:10:17.796Z,5.28
2022-12-19T23:12:47.378Z,5.30
2022-12-19T23:15:16.070Z,5.32
2022-12-19T23:17:44.350Z,5.34
2022-12-19T23:20:13.419Z,5.38
2022-12-19T23:22:41.698Z,5.37
2022-12-19T23:25:11.313Z,5.42
2022-12-19T23:27:41.547Z,5.47
2022-12-19T23:30:12.148Z,5.46
2022-12-19T23:32:44.213Z,5.48
2022-12-19T23:35:17.821Z,5.52
2022-12-19T23:37:46.042Z,5.54
2022-12-19T23:40:14.568Z,5.59
2022-12-19T23:42:42.974Z,5.63
2022-12-19T23:45:13.228Z,5.62
2022-12-19T23:47:41.466Z,5.65
2022-12-19T23:50:10.769Z,5.67
2022-12-19T23:52:38.977Z,5.73
2022-12-19T23:55:08.495Z,5.73
2022-12-19T23:57:36.927Z,5.77
